Time;durP1;ratioP1;P1;durP2;ratioP2;P2;SDS_P1;SDS_P2;PMS_P1;PMS_P2;Temp;Humidity;BMP_temperature;BMP_pressure;BME280_temperature;BME280_humidity;BME280_pressure;Samples;Min_cycle;Max_cycle;Signal;HPM_P1;HPM_P2
2022/12/09 07:39:20;;;;;;;45.47;19.03;;;-1.80;99.90;;;;;;6241644;23;20028;-87
2022/12/09 07:42:55;;;;;;;46.90;19.43;;;-1.50;99.90;;;;;;6219630;23;20023;-86
2022/12/09 07:59:22;;;;;;;60.40;23.37;;;-1.70;99.90;;;;;;6228363;22;20024;-86
2022/12/09 08:02:19;;;;;;;53.33;22.50;;;-1.60;99.90;;;;;;6224824;23;20631;-86
2022/12/09 08:04:51;;;;;;;63.83;24.70;;;-1.10;99.90;;;;;;6217961;23;20024;-87
2022/12/09 08:18:51;;;;;;;127.67;34.17;;;0.30;99.90;;;;;;6245804;23;20015;-88
2022/12/09 08:21:47;;;;;;;168.47;38.43;;;0.20;99.90;;;;;;6243260;23;20099;-88
2022/12/09 08:24:13;;;;;;;185.10;48.17;;;-0.70;99.90;;;;;;6219849;23;20016;-87
2022/12/09 08:27:00;;;;;;;185.67;40.77;;;-0.50;99.90;;;;;;6246599;23;20365;-86
2022/12/09 08:33:27;;;;;;;220.53;43.37;;;0.30;99.90;;;;;;6096383;23;20033;-86
2022/12/09 08:36:12;;;;;;;210.37;41.37;;;1.30;99.90;;;;;;6069635;23;20402;-86
2022/12/09 08:38:56;;;;;;;212.53;46.30;;;1.60;99.90;;;;;;6070310;23;20078;-86
2022/12/09 08:44:26;;;;;;;292.85;44.65;;;-0.20;99.90;;;;;;6093752;23;20093;-89
2022/12/09 08:50:15;;;;;;;;;;;1.00;99.90;;;;;;6170575;23;20393;-88
2022/12/09 08:53:00;;;;;;;341.67;47.90;;;0.00;99.90;;;;;;6247648;23;19998;-87
2022/12/09 08:55:38;;;;;;;228.90;45.40;;;0.30;99.90;;;;;;6246296;23;20016;-86
2022/12/09 08:58:06;;;;;;;354.70;51.03;;;0.00;99.90;;;;;;6218813;23;20027;-86
2022/12/09 09:00:43;;;;;;;270.20;45.90;;;0.20;99.90;;;;;;6245769;23;20057;-86
2022/12/09 09:03:15;;;;;;;204.40;43.10;;;1.40;99.90;;;;;;6244601;23;20019;-86
2022/12/09 09:05:50;;;;;;;216.00;47.03;;;1.30;99.90;;;;;;6244667;23;20023;-87
2022/12/09 09:08:21;;;;;;;292.57;48.37;;;0.30;99.90;;;;;;6218391;23;20023;-86
2022/12/09 09:11:08;;;;;;;;;;;;;;;;;;;;;
2022/12/09 09:13:55;;;;;;;211.70;42.00;;;0.60;99.90;;;;;;6197472;23;20321;-87
2022/12/09 09:16:28;;;;;;;186.00;50.60;;;1.30;99.90;;;;;;6245018;23;20028;-87
2022/12/09 09:19:30;;;;;;;161.33;40.77;;;1.30;99.90;;;;;;6243323;23;20012;-87
2022/12/09 09:30:09;;;;;;;131.67;40.80;;;1.40;99.90;;;;;;6217499;23;20082;-88
2022/12/09 09:33:46;;;;;;;145.00;37.87;;;2.20;99.90;;;;;;6150963;23;20017;-87
2022/12/09 09:41:31;;;;;;;125.07;36.50;;;1.00;99.90;;;;;;6046608;23;20082;-87
2022/12/09 09:45:09;;;;;;;127.20;37.80;;;0.30;99.90;;;;;;6064584;23;20022;-87
2022/12/09 09:52:11;;;;;;;;;;;;;;;;;;;;;
2022/12/09 09:55:54;;;;;;;126.97;36.43;;;1.20;99.90;;;;;;6070540;23;20052;-87
2022/12/09 09:59:18;;;;;;;;;;;;;;;;;;;;;
2022/12/09 10:03:11;;;;;;;;;;;;;;;;;;;;;
2022/12/09 10:21:46;;;;;;;96.40;35.43;;;1.60;99.90;;;;;;5871829;24;20026;-86
2022/12/09 10:51:57;;;;;;;70.90;30.50;;;1.80;99.90;;;;;;6037287;23;20320;-86
2022/12/09 10:58:15;;;;;;;70.13;30.07;;;1.50;99.90;;;;;;6032991;23;20082;-85
2022/12/09 11:05:17;;;;;;;;;;;;;;;;;;;;;
2022/12/09 11:14:24;;;;;;;56.70;26.77;;;1.90;99.90;;;;;;6163856;23;20025;-88
2022/12/09 11:17:39;;;;;;;56.00;26.37;;;1.60;99.90;;;;;;6159845;23;20764;-87
2022/12/09 11:38:43;;;;;;;46.33;24.07;;;1.40;99.90;;;;;;6241303;22;20349;-87
2022/12/09 11:52:47;;;;;;;39.43;19.37;;;2.10;99.90;;;;;;6139463;23;20513;-88
2022/12/09 12:03:43;;;;;;;;;;;;;;;;;;;;;
2022/12/09 12:11:00;;;;;;;39.63;18.67;;;1.90;99.90;;;;;;6249720;23;20019;-92
2022/12/09 12:20:03;;;;;;;39.70;19.67;;;2.20;99.90;;;;;;6245120;22;20514;-84
2022/12/09 12:23:27;;;;;;;36.77;17.43;;;2.50;99.90;;;;;;6246048;23;20130;-86
2022/12/09 12:26:36;;;;;;;34.10;16.27;;;3.10;99.90;;;;;;6247560;23;20016;-89
2022/12/09 12:29:39;;;;;;;35.03;17.50;;;2.40;99.90;;;;;;6219165;23;20031;-86
2022/12/09 12:32:33;;;;;;;34.83;19.63;;;2.40;99.90;;;;;;6219373;23;20102;-87
2022/12/09 12:37:53;;;;;;;34.23;16.97;;;2.20;99.90;;;;;;6244718;22;20024;-87
2022/12/09 12:55:07;;;;;;;31.67;14.77;;;1.20;99.90;;;;;;6162367;23;20021;-86
2022/12/09 13:05:25;;;;;;;30.87;16.40;;;4.00;99.90;;;;;;6239208;22;20030;-87
2022/12/09 13:08:36;;;;;;;35.00;18.10;;;1.90;99.90;;;;;;6200012;22;20027;-86
2022/12/09 13:11:27;;;;;;;33.27;16.40;;;3.30;99.90;;;;;;6252788;22;20440;-86
2022/12/09 13:14:38;;;;;;;33.40;16.50;;;2.50;99.90;;;;;;6218450;23;20074;-87
2022/12/09 13:17:25;;;;;;;29.17;15.13;;;2.50;99.90;;;;;;6218155;23;20081;-86
2022/12/09 13:23:27;;;;;;;27.97;13.67;;;3.10;99.90;;;;;;6238310;23;20028;-86
2022/12/09 13:26:07;;;;;;;30.60;14.43;;;2.30;99.90;;;;;;6246100;23;20436;-87
2022/12/09 13:33:03;;;;;;;27.30;13.80;;;2.80;99.90;;;;;;6242135;23;20020;-87
2022/12/09 13:36:25;;;;;;;;;;;;;;;;;;;;;
2022/12/09 13:39:38;;;;;;;27.37;13.40;;;2.50;99.90;;;;;;6155722;23;20058;-85
2022/12/09 13:43:00;;;;;;;26.85;13.43;;;2.70;99.90;;;;;;6245717;23;20023;-86
2022/12/09 13:48:41;;;;;;;;;;;;;;;;;;;;;
2022/12/09 13:51:50;;;;;;;27.83;13.63;;;3.20;99.90;;;;;;6134109;23;20059;-86
2022/12/09 13:55:02;;;;;;;28.17;13.80;;;2.40;99.90;;;;;;6179479;23;20074;-86
2022/12/09 13:58:13;;;;;;;26.55;13.05;;;2.60;99.90;;;;;;6219140;23;20099;-85
2022/12/09 14:01:14;;;;;;;27.10;13.43;;;4.00;99.90;;;;;;6220632;23;20017;-87
2022/12/09 14:14:47;;;;;;;28.37;12.43;;;2.00;99.90;;;;;;6066314;23;20033;-87
2022/12/09 14:17:28;;;;;;;25.53;12.30;;;2.30;99.90;;;;;;6123689;23;20025;-87
2022/12/09 14:20:36;;;;;;;24.87;11.80;;;0.60;99.90;;;;;;6099463;23;20034;-87
2022/12/09 14:26:17;;;;;;;;;;;;;;;;;;;;;
2022/12/09 14:29:29;;;;;;;28.23;12.40;;;2.10;99.90;;;;;;6063501;23;20022;-87
2022/12/09 14:32:51;;;;;;;26.00;13.07;;;2.60;99.90;;;;;;6106841;23;20092;-86
2022/12/09 14:35:53;;;;;;;23.83;11.57;;;2.00;99.90;;;;;;6270177;23;20080;-85
2022/12/09 14:46:21;;;;;;;24.80;12.10;;;2.10;99.90;;;;;;6124710;23;20029;-87
2022/12/09 17:35:32;;;;;;;40.60;18.92;;;-2.20;99.90;;;;;;6217458;23;20360;-87
2022/12/09 18:06:10;;;;;;;;;;;;;;;;;;;;;
2022/12/09 18:09:36;;;;;;;41.33;19.77;;;-1.20;99.90;;;;;;6140904;23;20020;-87
2022/12/09 18:28:49;;;;;;;;;;;;;;;;;;;;;
2022/12/09 18:35:16;;;;;;;39.57;16.93;;;-1.70;99.90;;;;;;5838869;24;20421;-87
2022/12/09 18:38:23;;;;;;;38.60;15.97;;;-1.90;99.90;;;;;;5976169;23;20461;-85
2022/12/09 19:03:25;;;;;;;39.93;17.50;;;-2.70;99.90;;;;;;6070390;23;20050;-86
2022/12/09 19:13:27;;;;;;;36.27;15.90;;;-1.90;99.90;;;;;;5886415;24;20025;-85
2022/12/09 19:16:11;;;;;;;39.50;15.80;;;-3.10;99.90;;;;;;5907476;24;20024;-85
2022/12/09 19:18:52;;;;;;;35.80;15.43;;;-3.20;99.90;;;;;;5926032;24;20409;-85
2022/12/09 19:25:56;;;;;;;;;;;;;;;;;;;;;
2022/12/09 19:32:43;;;;;;;;;;;;;;;;;;;;;
2022/12/09 19:40:11;;;;;;;36.27;16.33;;;-2.80;99.90;;;;;;5781038;24;20038;-87
2022/12/09 19:51:58;;;;;;;41.03;17.17;;;-2.90;99.90;;;;;;6122823;23;20030;-86
2022/12/09 19:54:55;;;;;;;42.23;17.20;;;-2.70;99.90;;;;;;6122935;23;20124;-90
2022/12/09 19:57:39;;;;;;;40.83;17.17;;;-2.70;99.90;;;;;;6122235;23;20029;-85
2022/12/09 20:00:14;;;;;;;44.67;18.10;;;-2.30;99.90;;;;;;6123628;23;20104;-86
2022/12/09 20:02:48;;;;;;;43.13;16.90;;;-3.00;99.90;;;;;;6122028;23;20022;-86
2022/12/09 20:05:26;;;;;;;38.93;17.10;;;-2.40;99.90;;;;;;6122279;23;20117;-86
2022/12/09 20:07:58;;;;;;;46.07;18.13;;;-2.90;99.90;;;;;;6104484;23;20137;-85
2022/12/09 20:10:44;;;;;;;41.73;17.37;;;-3.30;99.90;;;;;;6234045;23;20016;-85
2022/12/09 20:13:19;;;;;;;49.80;19.00;;;-3.10;99.90;;;;;;6230625;23;20016;-86
2022/12/09 20:15:53;;;;;;;47.27;19.17;;;-2.10;99.90;;;;;;6249401;23;20027;-86
2022/12/09 20:18:19;;;;;;;49.10;19.20;;;-1.70;99.90;;;;;;6217412;23;20026;-86
2022/12/09 20:20:51;;;;;;;50.07;20.23;;;-1.50;99.90;;;;;;6218297;23;20405;-86
2022/12/09 20:24:07;;;;;;;51.83;21.10;;;-3.00;99.90;;;;;;6209728;23;20020;-86
2022/12/09 20:26:35;;;;;;;49.33;20.00;;;-2.40;99.90;;;;;;6212324;23;20031;-85
2022/12/09 20:29:11;;;;;;;52.33;20.27;;;-3.00;99.90;;;;;;6213838;23;20060;-86
2022/12/09 20:31:48;;;;;;;53.37;20.93;;;-1.50;99.90;;;;;;6245405;23;20016;-86
2022/12/09 20:34:26;;;;;;;50.27;20.93;;;-1.70;99.90;;;;;;6244187;23;20020;-86
2022/12/09 20:37:01;;;;;;;50.00;20.97;;;-0.20;99.90;;;;;;6217775;23;20016;-86
2022/12/09 20:39:27;;;;;;;49.00;20.67;;;-0.80;99.90;;;;;;6217219;23;20050;-86
2022/12/09 20:41:53;;;;;;;46.87;20.73;;;-2.60;99.90;;;;;;6245605;23;20082;-86
2022/12/09 20:44:31;;;;;;;54.57;20.40;;;-1.10;99.90;;;;;;6217598;23;20109;-86
2022/12/09 20:47:07;;;;;;;51.00;21.13;;;-1.40;99.90;;;;;;6247667;23;20031;-86
2022/12/09 20:49:32;;;;;;;48.77;19.73;;;-2.40;99.90;;;;;;6218488;23;20058;-87
2022/12/09 20:52:10;;;;;;;48.57;19.43;;;-0.90;99.90;;;;;;6217139;23;20099;-86
2022/12/09 20:54:39;;;;;;;48.40;21.57;;;-2.60;99.90;;;;;;6244200;23;20310;-86
2022/12/09 20:57:20;;;;;;;43.07;19.20;;;-2.30;99.90;;;;;;6245038;23;20023;-85
2022/12/09 20:59:46;;;;;;;48.03;20.57;;;-1.10;99.90;;;;;;6245360;23;20075;-86
2022/12/09 21:02:39;;;;;;;47.43;20.07;;;-2.60;99.90;;;;;;6222126;23;20027;-85
2022/12/09 21:05:08;;;;;;;43.85;18.65;;;-3.30;99.90;;;;;;6220075;23;20336;-86
2022/12/09 21:08:00;;;;;;;46.03;20.10;;;-2.60;99.90;;;;;;6217521;23;20012;-87
2022/12/09 21:10:28;;;;;;;44.57;19.57;;;-2.20;99.90;;;;;;6242078;23;20020;-87
2022/12/09 21:12:54;;;;;;;49.03;19.90;;;-1.20;99.90;;;;;;6221254;23;20440;-86
2022/12/09 21:15:29;;;;;;;43.77;19.40;;;-2.70;99.90;;;;;;6217623;23;20023;-86
2022/12/09 21:18:07;;;;;;;46.67;20.80;;;-2.80;99.90;;;;;;6246474;23;20099;-87
2022/12/09 21:20:53;;;;;;;44.33;19.80;;;-1.60;99.90;;;;;;6217353;23;20155;-87
2022/12/09 21:29:23;;;;;;;50.73;19.83;;;-3.00;99.90;;;;;;6099545;23;20025;-85
2022/12/09 21:32:13;;;;;;;47.73;20.00;;;-1.20;99.90;;;;;;6126182;23;20009;-85
2022/12/09 21:34:39;;;;;;;47.17;19.23;;;-1.00;99.90;;;;;;6098474;23;20053;-85
2022/12/09 21:37:14;;;;;;;47.40;19.83;;;-2.90;99.90;;;;;;6124110;23;20025;-85
2022/12/09 21:39:48;;;;;;;45.97;20.10;;;-2.70;99.90;;;;;;6125805;23;20521;-85
2022/12/09 21:42:22;;;;;;;42.93;19.43;;;-2.70;99.90;;;;;;6126090;23;20014;-86
2022/12/09 21:45:00;;;;;;;45.80;20.40;;;-3.10;99.90;;;;;;6098949;23;20022;-85
2022/12/09 21:47:38;;;;;;;46.17;20.17;;;-1.60;99.90;;;;;;6125355;23;20092;-86
2022/12/09 21:50:15;;;;;;;42.37;18.67;;;-3.00;99.90;;;;;;6125544;23;20050;-86
2022/12/09 21:52:50;;;;;;;50.70;20.63;;;-3.30;99.90;;;;;;6100104;23;20025;-85
2022/12/09 21:55:28;;;;;;;47.23;19.63;;;-2.80;99.90;;;;;;6100163;23;20058;-85
2022/12/09 21:57:54;;;;;;;47.27;20.20;;;-3.20;99.90;;;;;;6099142;23;20025;-85
2022/12/09 22:00:22;;;;;;;47.37;19.80;;;-2.50;99.90;;;;;;6098967;23;20025;-85
2022/12/09 22:03:06;;;;;;;47.77;21.07;;;-2.90;99.90;;;;;;6126651;23;20014;-86
2022/12/09 22:05:41;;;;;;;43.72;19.95;;;-3.40;99.90;;;;;;6145959;23;20092;-85
2022/12/09 22:08:57;;;;;;;46.10;20.47;;;-1.70;99.90;;;;;;6184323;23;20472;-85
2022/12/09 22:11:26;;;;;;;43.13;19.80;;;-2.80;99.90;;;;;;6181301;23;20361;-85
2022/12/09 22:14:09;;;;;;;48.10;19.97;;;-3.30;99.90;;;;;;6182932;23;20021;-85
2022/12/09 22:16:44;;;;;;;42.90;18.57;;;-3.70;99.90;;;;;;6185013;23;20017;-84
2022/12/09 22:19:16;;;;;;;47.90;20.07;;;-3.40;99.90;;;;;;6181484;23;20009;-86
2022/12/09 22:21:44;;;;;;;45.53;19.37;;;-3.60;99.90;;;;;;6184534;23;20075;-85
2022/12/09 22:24:13;;;;;;;44.30;18.73;;;-3.50;99.90;;;;;;6184684;23;20333;-85
2022/12/09 22:26:42;;;;;;;47.37;20.50;;;-3.10;99.90;;;;;;6181691;23;20013;-84
2022/12/09 22:29:20;;;;;;;57.93;24.60;;;-3.70;99.90;;;;;;6184209;23;20021;-85
2022/12/09 22:31:46;;;;;;;53.00;24.43;;;-2.20;99.90;;;;;;6185694;23;20329;-85
2022/12/09 22:34:27;;;;;;;55.30;23.43;;;-2.60;99.90;;;;;;6184824;23;20088;-85
2022/12/09 22:36:56;;;;;;;47.07;20.40;;;-2.30;99.90;;;;;;6183172;23;20075;-85
2022/12/09 22:39:34;;;;;;;47.63;21.10;;;-3.50;99.90;;;;;;6190261;23;20024;-85
2022/12/09 22:42:09;;;;;;;54.70;23.37;;;-2.10;99.90;;;;;;6201563;23;20374;-85
2022/12/09 22:44:50;;;;;;;58.50;25.90;;;-2.30;99.90;;;;;;6185014;23;20469;-85
2022/12/09 22:47:19;;;;;;;52.83;23.10;;;-3.60;99.90;;;;;;6191708;23;20001;-85
2022/12/09 22:49:54;;;;;;;50.77;20.57;;;-3.70;99.90;;;;;;6204340;23;20318;-85
2022/12/09 22:52:25;;;;;;;47.57;21.03;;;-3.60;99.90;;;;;;6205639;23;20021;-84
2022/12/09 22:55:05;;;;;;;46.90;20.50;;;-3.70;99.90;;;;;;6202212;23;20013;-86
2022/12/09 22:57:31;;;;;;;45.90;20.43;;;-3.90;99.90;;;;;;6187772;23;20106;-85
2022/12/09 23:00:05;;;;;;;45.03;20.30;;;-3.50;99.90;;;;;;6183676;23;20016;-84
2022/12/09 23:02:45;;;;;;;46.67;20.63;;;-3.50;99.90;;;;;;6182429;23;20017;-85
2022/12/09 23:05:36;;;;;;;46.27;20.90;;;-3.50;99.90;;;;;;6194095;23;20043;-86
2022/12/09 23:08:04;;;;;;;46.30;20.57;;;-3.40;99.90;;;;;;6244881;23;20090;-84
2022/12/09 23:10:44;;;;;;;49.73;21.87;;;-1.70;99.90;;;;;;6247286;23;20018;-84
2022/12/09 23:13:19;;;;;;;51.50;23.40;;;-3.40;99.90;;;;;;6219506;23;20070;-85
2022/12/09 23:16:24;;;;;;;47.80;21.10;;;-3.00;99.90;;;;;;6219278;23;20016;-84
2022/12/09 23:18:57;;;;;;;67.70;30.35;;;-2.60;99.90;;;;;;6099042;23;20056;-84
2022/12/09 23:21:35;;;;;;;45.55;20.23;;;-3.70;99.90;;;;;;6098779;23;20476;-84
2022/12/09 23:24:15;;;;;;;47.80;20.83;;;-3.40;99.90;;;;;;6220231;23;20063;-84
2022/12/09 23:26:55;;;;;;;46.10;20.57;;;-2.30;99.90;;;;;;6247281;23;20012;-84
2022/12/09 23:29:24;;;;;;;47.77;20.93;;;-1.60;99.90;;;;;;6245926;23;20016;-84
2022/12/09 23:31:58;;;;;;;45.40;20.80;;;-3.30;99.90;;;;;;6219719;23;20375;-84
2022/12/09 23:34:39;;;;;;;45.13;20.77;;;-3.90;99.90;;;;;;6219053;23;20509;-84
2022/12/09 23:37:17;;;;;;;49.43;21.97;;;-3.50;99.90;;;;;;6245663;23;20344;-84
2022/12/09 23:39:52;;;;;;;48.23;21.70;;;-3.30;99.90;;;;;;6246832;23;20027;-84
2022/12/09 23:42:23;;;;;;;49.50;21.73;;;-2.20;99.90;;;;;;6217714;23;20016;-83
2022/12/09 23:45:01;;;;;;;46.97;20.20;;;-1.90;99.90;;;;;;6219589;23;20016;-84
2022/12/09 23:47:33;;;;;;;48.70;21.47;;;-3.70;99.90;;;;;;6219031;23;20022;-84
2022/12/09 23:49:59;;;;;;;46.77;20.63;;;-3.30;99.90;;;;;;6245843;23;20012;-84
2022/12/09 23:52:36;;;;;;;47.00;21.13;;;-3.60;99.90;;;;;;6219005;23;20027;-84
2022/12/09 23:55:16;;;;;;;48.83;20.90;;;-3.20;99.90;;;;;;6219776;23;20031;-84
2022/12/09 23:57:42;;;;;;;49.27;21.43;;;-2.90;99.90;;;;;;6244938;23;20393;-84
